Windsor Park, Mississippi
Current Conditions -  °F | °C
As of 5:58 AM on Monday 26 Jan 2015 (Local Time) from KBIX Reporting Station
Clear Clear  
Wind Chill: 44°   Ceiling: Unl
Heat Index: 44°   Visibility: 10mi
Dew Point: 36°   Wind: 1mph
Humidity: 74%   Direction: NA
Pressure: 30.03"   Gusts: NA
Location:  30.418°N, 88.7558°W
Report Text: KBIX 261158Z AUTO VRB01KT 10SM CLR 07/02 A3003 RMK AO2 SLP172 T00670023 10111 20065 53013 $
Loading
Personal Weather Stations






























Interactive Weather Map New forecast layout! Learn more

10-Day Weather Forecast

Advertisements
Track Severe Weather on mobile